createdAt,value
2023-05-01T00:01:00.159Z,17.30
2023-05-01T00:03:33.459Z,17.32
2023-05-01T00:06:05.832Z,17.31
2023-05-01T00:08:37.833Z,17.28
2023-05-01T00:11:12.684Z,17.25
2023-05-01T00:13:44.748Z,17.24
2023-05-01T00:16:17.562Z,17.26
2023-05-01T00:18:49.648Z,17.24
2023-05-01T00:21:21.555Z,16.96
2023-05-01T00:23:53.605Z,17.19
2023-05-01T00:26:29.803Z,17.19
2023-05-01T00:29:01.903Z,17.18
2023-05-01T00:31:33.819Z,17.12
2023-05-01T00:34:06.287Z,17.16
2023-05-01T00:36:38.354Z,17.02
2023-05-01T00:39:10.314Z,17.14
2023-05-01T00:41:42.353Z,17.11
2023-05-01T00:44:14.613Z,17.11
2023-05-01T00:46:46.619Z,17.06
2023-05-01T00:49:18.693Z,17.08
2023-05-01T00:51:55.565Z,17.09
2023-05-01T00:54:28.269Z,17.06
2023-05-01T00:57:00.612Z,17.02
2023-05-01T00:59:32.600Z,17.00
2023-05-01T01:02:04.797Z,16.98
2023-05-01T01:04:36.737Z,16.99
2023-05-01T01:07:31.975Z,16.95
2023-05-01T01:10:30.598Z,16.92
2023-05-01T01:13:26.359Z,16.91
2023-05-01T01:16:34.158Z,16.83
2023-05-01T01:19:46.099Z,16.87
2023-05-01T01:22:24.222Z,16.90
2023-05-01T01:24:59.308Z,16.91
2023-05-01T01:27:52.278Z,16.82
2023-05-01T01:31:05.427Z,16.78
2023-05-01T01:34:02.028Z,16.79
2023-05-01T01:36:40.056Z,16.79
2023-05-01T01:39:44.761Z,16.77
2023-05-01T01:42:26.841Z,16.65
2023-05-01T01:45:10.804Z,16.72
2023-05-01T01:47:45.770Z,16.72
2023-05-01T01:50:21.890Z,16.69
2023-05-01T01:52:58.606Z,16.66
2023-05-01T01:55:35.077Z,16.61
2023-05-01T01:58:10.588Z,16.60
2023-05-01T02:00:45.702Z,16.61
2023-05-01T02:03:19.853Z,16.44
2023-05-01T02:05:55.394Z,16.58
2023-05-01T02:08:31.794Z,16.34
2023-05-01T02:11:06.043Z,16.53
2023-05-01T02:13:40.925Z,16.54
2023-05-01T02:16:13.948Z,16.53
2023-05-01T02:18:47.111Z,16.51
2023-05-01T02:21:21.005Z,16.46
2023-05-01T02:23:54.724Z,16.51
2023-05-01T02:26:29.510Z,16.48
2023-05-01T02:29:01.647Z,16.47
2023-05-01T02:31:34.500Z,16.42
2023-05-01T02:34:06.482Z,16.43
2023-05-01T02:36:38.617Z,16.43
2023-05-01T02:39:11.046Z,16.40
2023-05-01T02:41:45.800Z,16.25
2023-05-01T02:44:19.491Z,16.38
2023-05-01T02:46:55.351Z,16.34
2023-05-01T02:49:28.001Z,16.30
2023-05-01T02:52:01.070Z,16.28
2023-05-01T02:54:34.590Z,16.27
2023-05-01T02:57:06.613Z,16.25
2023-05-01T02:59:38.674Z,16.23
2023-05-01T03:02:10.769Z,16.24
2023-05-01T03:04:44.038Z,16.21
2023-05-01T03:07:16.097Z,16.21
2023-05-01T03:09:48.060Z,16.20
2023-05-01T03:12:19.995Z,16.20
2023-05-01T03:14:52.151Z,16.20
2023-05-01T03:17:24.161Z,16.17
2023-05-01T03:19:56.391Z,15.94
2023-05-01T03:22:33.136Z,16.16
2023-05-01T03:25:05.789Z,16.12
2023-05-01T03:27:37.749Z,16.13
2023-05-01T03:30:10.682Z,16.11
2023-05-01T03:32:42.682Z,16.06
2023-05-01T03:35:14.738Z,16.05
2023-05-01T03:37:46.756Z,16.01
2023-05-01T03:40:19.619Z,16.00
2023-05-01T03:42:51.772Z,16.00
2023-05-01T03:45:23.778Z,15.98
2023-05-01T03:47:57.281Z,15.96
2023-05-01T03:50:29.261Z,15.96
2023-05-01T03:53:01.204Z,15.96
2023-05-01T03:55:33.733Z,15.92
2023-05-01T03:58:06.929Z,15.95
2023-05-01T04:00:39.680Z,15.97
2023-05-01T04:03:11.676Z,15.96
2023-05-01T04:05:43.717Z,15.96
2023-05-01T04:08:15.988Z,15.92
2023-05-01T04:10:47.965Z,15.92
2023-05-01T04:13:19.884Z,16.21
2023-05-01T04:15:52.029Z,15.97
2023-05-01T04:18:24.054Z,15.90
2023-05-01T04:20:56.500Z,15.88
2023-05-01T04:23:28.627Z,15.89
2023-05-01T04:26:00.686Z,15.88
2023-05-01T04:28:32.585Z,15.86
2023-05-01T04:31:04.665Z,15.84
2023-05-01T04:33:36.652Z,15.84
2023-05-01T04:36:08.620Z,15.78
2023-05-01T04:38:40.666Z,15.68
2023-05-01T04:41:12.625Z,15.62
2023-05-01T04:43:44.661Z,15.62
2023-05-01T04:46:16.751Z,15.62
2023-05-01T04:48:48.709Z,15.64
2023-05-01T04:51:20.694Z,15.57
2023-05-01T04:53:52.682Z,15.61
2023-05-01T04:56:26.819Z,15.62
2023-05-01T04:58:58.832Z,15.61
2023-05-01T05:01:30.970Z,15.59
2023-05-01T05:04:03.027Z,15.61
2023-05-01T05:06:35.161Z,15.56
2023-05-01T05:09:07.180Z,15.60
2023-05-01T05:11:39.162Z,15.50
2023-05-01T05:14:11.328Z,15.57
2023-05-01T05:16:43.510Z,15.64
2023-05-01T05:19:16.260Z,15.58
2023-05-01T05:21:48.284Z,15.65
2023-05-01T05:24:20.266Z,15.70
2023-05-01T05:26:52.164Z,15.58
2023-05-01T05:29:24.054Z,15.68
2023-05-01T05:31:57.960Z,15.70
2023-05-01T05:34:30.097Z,15.70
2023-05-01T05:37:02.438Z,15.75
2023-05-01T05:39:34.389Z,15.82
2023-05-01T05:42:06.554Z,15.82
2023-05-01T05:44:39.292Z,15.79
2023-05-01T05:47:11.257Z,15.83
2023-05-01T05:49:43.148Z,15.87
2023-05-01T05:52:15.183Z,15.89
2023-05-01T05:54:47.747Z,15.91
2023-05-01T05:57:19.659Z,15.96
2023-05-01T05:59:51.721Z,15.98
2023-05-01T06:02:23.789Z,15.99
2023-05-01T06:04:56.545Z,15.97
2023-05-01T06:07:28.951Z,16.03
2023-05-01T06:10:04.383Z,16.04
2023-05-01T06:12:39.040Z,15.97
2023-05-01T06:15:16.998Z,16.10
2023-05-01T06:17:49.241Z,16.16
2023-05-01T06:20:21.224Z,16.17
2023-05-01T06:22:53.207Z,16.23
2023-05-01T06:25:25.233Z,16.25
2023-05-01T06:27:57.304Z,16.29
2023-05-01T06:30:29.335Z,16.32
2023-05-01T06:33:01.390Z,16.34
2023-05-01T06:35:33.352Z,16.34
2023-05-01T06:38:05.371Z,16.40
2023-05-01T06:40:37.556Z,16.31
2023-05-01T06:43:09.509Z,16.46
2023-05-01T06:45:42.206Z,16.50
2023-05-01T06:48:14.186Z,16.47
2023-05-01T06:50:46.514Z,16.57
2023-05-01T06:53:18.525Z,16.27
2023-05-01T06:55:50.952Z,16.58
2023-05-01T06:58:24.409Z,16.59
2023-05-01T07:00:57.139Z,16.63
2023-05-01T07:03:29.317Z,16.69
2023-05-01T07:06:01.353Z,16.76
2023-05-01T07:08:33.353Z,16.82
2023-05-01T07:11:05.505Z,16.89
2023-05-01T07:13:37.654Z,17.02
2023-05-01T07:16:09.709Z,17.17
2023-05-01T07:18:41.654Z,17.24
2023-05-01T07:21:13.588Z,17.30
2023-05-01T07:23:46.356Z,17.51
2023-05-01T07:26:18.356Z,17.55
2023-05-01T07:28:50.451Z,17.65
2023-05-01T07:31:22.890Z,17.76
2023-05-01T07:33:54.928Z,17.82
2023-05-01T07:36:34.055Z,17.84
2023-05-01T07:39:06.754Z,17.82
2023-05-01T07:41:38.681Z,17.79
2023-05-01T07:44:10.740Z,17.88
2023-05-01T07:46:43.217Z,17.96
2023-05-01T07:49:15.170Z,18.04
2023-05-01T07:51:47.073Z,18.28
2023-05-01T07:54:22.067Z,18.33
2023-05-01T07:56:54.239Z,18.46
2023-05-01T07:59:26.333Z,18.54
2023-05-01T08:01:58.381Z,18.73
2023-05-01T08:04:31.162Z,18.78
2023-05-01T08:07:03.178Z,18.79
2023-05-01T08:09:35.077Z,18.82
2023-05-01T08:12:07.138Z,19.00
2023-05-01T08:14:39.139Z,19.33
2023-05-01T08:17:11.194Z,19.62
2023-05-01T08:19:43.179Z,19.92
2023-05-01T08:22:15.097Z,20.16
2023-05-01T08:24:47.078Z,20.09
2023-05-01T08:27:19.273Z,20.24
2023-05-01T08:29:51.336Z,20.31
2023-05-01T08:32:23.299Z,20.35
2023-05-01T08:34:55.549Z,20.43
2023-05-01T08:37:27.747Z,20.44
2023-05-01T08:39:59.687Z,20.26
2023-05-01T08:42:32.415Z,20.42
2023-05-01T08:45:08.512Z,20.38
2023-05-01T08:47:40.841Z,20.56
2023-05-01T08:50:15.800Z,20.81
2023-05-01T08:52:51.473Z,20.94
2023-05-01T08:55:26.171Z,21.17
2023-05-01T08:57:59.644Z,21.26
2023-05-01T09:00:34.430Z,21.19
2023-05-01T09:03:08.617Z,20.96
2023-05-01T09:05:40.677Z,20.88
2023-05-01T09:08:12.840Z,21.16
2023-05-01T09:10:48.754Z,21.22
2023-05-01T09:13:20.799Z,21.22
2023-05-01T09:15:52.811Z,21.21
2023-05-01T09:18:25.441Z,21.34
2023-05-01T09:20:58.501Z,21.70
2023-05-01T09:23:30.708Z,21.75
2023-05-01T09:26:06.071Z,21.91
2023-05-01T09:28:48.786Z,22.07
2023-05-01T09:31:26.534Z,22.01
2023-05-01T09:34:01.173Z,21.92
2023-05-01T09:36:37.523Z,21.79
2023-05-01T09:39:23.411Z,21.79
2023-05-01T09:41:56.104Z,21.80
2023-05-01T09:44:28.117Z,22.00
2023-05-01T09:47:00.129Z,21.96
2023-05-01T09:49:48.225Z,22.34
2023-05-01T09:52:20.656Z,22.52
2023-05-01T09:55:17.516Z,22.55
2023-05-01T09:57:49.662Z,22.58
2023-05-01T10:00:22.370Z,22.88
2023-05-01T10:02:54.965Z,22.96
2023-05-01T10:05:27.385Z,23.01
2023-05-01T10:08:02.424Z,23.08
2023-05-01T10:10:34.688Z,22.94
2023-05-01T10:13:17.190Z,22.90
2023-05-01T10:15:50.448Z,22.95
2023-05-01T10:18:23.580Z,23.06
2023-05-01T10:20:56.750Z,23.13
2023-05-01T10:23:29.609Z,23.08
2023-05-01T10:26:05.095Z,23.13
2023-05-01T10:28:37.391Z,23.20
2023-05-01T10:31:13.004Z,23.13
2023-05-01T10:33:47.041Z,22.89
2023-05-01T10:36:32.188Z,22.73
2023-05-01T10:39:04.303Z,22.64
2023-05-01T10:41:58.090Z,22.67
2023-05-01T10:44:34.090Z,22.82
2023-05-01T10:47:27.696Z,23.00
2023-05-01T10:50:05.350Z,23.27
2023-05-01T10:53:15.669Z,23.41
2023-05-01T10:55:51.143Z,23.38
2023-05-01T10:58:51.598Z,23.27
2023-05-01T11:01:45.184Z,23.14
2023-05-01T11:04:22.871Z,23.06
2023-05-01T11:07:10.895Z,22.94
2023-05-01T11:09:59.171Z,22.68
2023-05-01T11:12:46.408Z,22.55
2023-05-01T11:15:34.176Z,22.55
2023-05-01T11:18:07.309Z,22.73
2023-05-01T11:20:57.126Z,22.77
2023-05-01T11:23:29.127Z,23.01
2023-05-01T11:26:04.841Z,23.14
2023-05-01T11:28:38.792Z,22.96
2023-05-01T11:31:11.645Z,22.60
2023-05-01T11:33:43.651Z,22.69
2023-05-01T11:36:15.580Z,22.58
2023-05-01T11:39:00.000Z,22.56
2023-05-01T11:41:32.139Z,22.57
2023-05-01T11:44:04.233Z,22.46
2023-05-01T11:46:36.240Z,22.53
2023-05-01T11:49:09.474Z,22.69
2023-05-01T11:51:41.495Z,22.72
2023-05-01T11:54:15.529Z,22.60
2023-05-01T11:56:48.670Z,22.52
2023-05-01T11:59:20.677Z,22.55
2023-05-01T12:01:53.513Z,22.65
2023-05-01T12:04:31.702Z,22.68
2023-05-01T12:07:04.250Z,22.58
2023-05-01T12:09:36.420Z,22.52
2023-05-01T12:12:08.434Z,22.63
2023-05-01T12:14:40.804Z,22.81
2023-05-01T12:17:13.126Z,22.86
2023-05-01T12:19:49.031Z,22.98
2023-05-01T12:22:21.891Z,23.06
2023-05-01T12:24:54.680Z,23.22
2023-05-01T12:27:26.860Z,23.29
2023-05-01T12:30:00.038Z,23.03
2023-05-01T12:32:33.744Z,23.29
2023-05-01T12:35:16.066Z,23.39
2023-05-01T12:37:48.634Z,23.27
2023-05-01T12:40:22.911Z,23.01
2023-05-01T12:42:59.818Z,23.06
2023-05-01T12:45:40.478Z,23.23
2023-05-01T12:48:14.857Z,23.35
2023-05-01T12:50:49.825Z,23.60
2023-05-01T12:53:24.885Z,23.52
2023-05-01T12:55:59.048Z,23.33
2023-05-01T12:58:38.087Z,22.98
2023-05-01T13:01:10.743Z,23.30
2023-05-01T13:03:44.506Z,23.39
2023-05-01T13:06:16.894Z,23.36
2023-05-01T13:08:50.015Z,23.17
2023-05-01T13:11:22.263Z,23.06
2023-05-01T13:13:54.352Z,23.28
2023-05-01T13:16:26.561Z,23.56
2023-05-01T13:18:58.708Z,23.73
2023-05-01T13:21:32.084Z,23.46
2023-05-01T13:24:04.411Z,23.32
2023-05-01T13:26:36.485Z,23.38
2023-05-01T13:29:17.389Z,23.48
2023-05-01T13:31:49.433Z,23.52
2023-05-01T13:34:34.489Z,23.63
2023-05-01T13:37:14.514Z,23.78
2023-05-01T13:39:47.451Z,23.83
2023-05-01T13:42:24.835Z,23.90
2023-05-01T13:44:58.140Z,23.84
2023-05-01T13:47:30.188Z,23.80
2023-05-01T13:50:02.429Z,23.72
2023-05-01T13:52:46.099Z,23.83
2023-05-01T13:55:18.857Z,24.03
2023-05-01T13:57:51.554Z,24.17
2023-05-01T14:00:23.557Z,24.03
2023-05-01T14:02:56.577Z,24.10
2023-05-01T14:05:29.029Z,24.05
2023-05-01T14:08:02.165Z,23.89
2023-05-01T14:10:34.419Z,23.76
2023-05-01T14:13:06.817Z,23.55
2023-05-01T14:15:43.904Z,23.74
2023-05-01T14:18:17.929Z,23.78
2023-05-01T14:20:50.444Z,23.71
2023-05-01T14:23:23.101Z,23.67
2023-05-01T14:25:55.012Z,23.56
2023-05-01T14:28:27.001Z,23.47
2023-05-01T14:30:59.129Z,23.38
2023-05-01T14:33:31.288Z,23.49
2023-05-01T14:36:03.593Z,23.72
2023-05-01T14:38:40.272Z,23.58
2023-05-01T14:41:13.124Z,23.82
2023-05-01T14:43:45.730Z,24.04
2023-05-01T14:46:33.316Z,24.00
2023-05-01T14:49:05.346Z,24.01
2023-05-01T14:51:41.204Z,23.95
2023-05-01T14:54:14.178Z,23.80
2023-05-01T14:56:48.517Z,23.82
2023-05-01T14:59:22.835Z,23.77
2023-05-01T15:01:54.850Z,23.66
2023-05-01T15:04:26.905Z,23.59
2023-05-01T15:06:58.976Z,23.64
2023-05-01T15:09:31.042Z,23.66
2023-05-01T15:12:05.541Z,23.50
2023-05-01T15:14:38.695Z,23.21
2023-05-01T15:17:10.674Z,23.02
2023-05-01T15:19:42.638Z,22.96
2023-05-01T15:22:14.650Z,23.08
2023-05-01T15:24:46.960Z,23.08
2023-05-01T15:27:18.952Z,23.28
2023-05-01T15:29:51.234Z,23.17
2023-05-01T15:32:23.935Z,22.92
2023-05-01T15:34:56.988Z,22.85
2023-05-01T15:37:31.241Z,22.81
2023-05-01T15:40:04.552Z,22.74
2023-05-01T15:42:36.580Z,22.74
2023-05-01T15:45:09.909Z,22.82
2023-05-01T15:47:41.928Z,23.01
2023-05-01T15:50:13.963Z,23.02
2023-05-01T15:52:46.044Z,23.14
2023-05-01T15:55:19.316Z,23.12
2023-05-01T15:57:51.532Z,23.17
2023-05-01T16:00:23.592Z,23.19
2023-05-01T16:02:55.837Z,22.94
2023-05-01T16:05:28.030Z,22.83
2023-05-01T16:08:01.486Z,22.83
2023-05-01T16:10:37.376Z,22.85
2023-05-01T16:13:09.460Z,22.77
2023-05-01T16:15:41.558Z,22.74
2023-05-01T16:18:23.086Z,22.77
2023-05-01T16:20:56.618Z,22.72
2023-05-01T16:23:28.640Z,22.68
2023-05-01T16:26:00.623Z,22.53
2023-05-01T16:28:36.163Z,22.23
2023-05-01T16:31:25.768Z,22.03
2023-05-01T16:33:58.391Z,21.95
2023-05-01T16:36:30.911Z,21.85
2023-05-01T16:39:03.878Z,21.74
2023-05-01T16:41:44.766Z,21.63
2023-05-01T16:44:18.379Z,21.61
2023-05-01T16:46:55.899Z,21.61
2023-05-01T16:49:28.062Z,21.66
2023-05-01T16:52:02.566Z,21.65
2023-05-01T16:54:36.314Z,21.51
2023-05-01T16:57:08.280Z,21.44
2023-05-01T16:59:40.216Z,21.39
2023-05-01T17:02:13.669Z,21.38
2023-05-01T17:04:46.317Z,21.31
2023-05-01T17:07:18.376Z,21.23
2023-05-01T17:09:50.365Z,21.27
2023-05-01T17:12:23.648Z,21.22
2023-05-01T17:14:56.545Z,21.10
2023-05-01T17:17:28.517Z,21.11
2023-05-01T17:20:01.249Z,21.03
2023-05-01T17:22:33.565Z,20.72
2023-05-01T17:25:06.689Z,21.02
2023-05-01T17:27:38.665Z,20.91
2023-05-01T17:30:11.253Z,20.80
2023-05-01T17:32:43.442Z,20.75
2023-05-01T17:35:16.704Z,20.77
2023-05-01T17:37:48.748Z,20.82
2023-05-01T17:40:20.982Z,20.87
2023-05-01T17:42:52.936Z,20.81
2023-05-01T17:45:25.003Z,20.77
2023-05-01T17:47:57.955Z,20.74
2023-05-01T17:50:30.085Z,20.81
2023-05-01T17:53:01.995Z,20.82
2023-05-01T17:55:35.984Z,20.85
2023-05-01T17:58:08.022Z,20.73
2023-05-01T18:00:40.590Z,20.82
2023-05-01T18:03:13.123Z,20.83
2023-05-01T18:05:45.217Z,20.85
2023-05-01T18:08:17.459Z,20.83
2023-05-01T18:10:49.522Z,20.80
2023-05-01T18:13:27.737Z,20.60
2023-05-01T18:15:59.766Z,20.72
2023-05-01T18:18:31.765Z,20.72
2023-05-01T18:21:03.970Z,20.68
2023-05-01T18:23:36.630Z,20.59
2023-05-01T18:26:08.739Z,20.49
2023-05-01T18:28:40.771Z,20.60
2023-05-01T18:31:14.439Z,20.58
2023-05-01T18:33:47.199Z,20.50
2023-05-01T18:36:19.351Z,20.29
2023-05-01T18:38:51.283Z,20.30
2023-05-01T18:41:26.387Z,20.29
2023-05-01T18:44:01.267Z,20.24
2023-05-01T18:46:33.350Z,20.27
2023-05-01T18:49:05.322Z,20.21
2023-05-01T18:51:37.551Z,20.15
2023-05-01T18:54:10.193Z,20.15
2023-05-01T18:56:42.180Z,20.11
2023-05-01T18:59:14.167Z,20.10
2023-05-01T19:01:46.241Z,20.09
2023-05-01T19:04:18.966Z,20.08
2023-05-01T19:06:51.197Z,19.81
2023-05-01T19:09:23.128Z,19.93
2023-05-01T19:11:55.320Z,19.93
2023-05-01T19:14:27.331Z,19.90
2023-05-01T19:16:59.290Z,19.76
2023-05-01T19:19:31.595Z,19.72
2023-05-01T19:22:03.586Z,20.02
2023-05-01T19:24:35.541Z,19.74
2023-05-01T19:27:07.544Z,19.65
2023-05-01T19:29:39.955Z,19.59
2023-05-01T19:32:12.213Z,19.55
2023-05-01T19:34:44.293Z,19.53
2023-05-01T19:37:16.281Z,19.51
2023-05-01T19:39:48.216Z,19.40
2023-05-01T19:42:20.303Z,19.35
2023-05-01T19:44:52.204Z,19.39
2023-05-01T19:47:24.287Z,19.39
2023-05-01T19:49:56.496Z,19.38
2023-05-01T19:52:28.729Z,19.34
2023-05-01T19:55:05.244Z,19.21
2023-05-01T19:57:37.211Z,19.23
2023-05-01T20:00:12.340Z,19.18
2023-05-01T20:02:44.425Z,19.10
2023-05-01T20:05:16.409Z,18.99
2023-05-01T20:07:48.361Z,19.10
2023-05-01T20:10:20.505Z,18.99
2023-05-01T20:12:52.841Z,18.99
2023-05-01T20:15:24.761Z,18.66
2023-05-01T20:17:57.494Z,18.84
2023-05-01T20:20:30.383Z,18.80
2023-05-01T20:23:14.640Z,18.74
2023-05-01T20:25:47.805Z,18.72
2023-05-01T20:28:21.029Z,18.73
2023-05-01T20:30:53.074Z,18.69
2023-05-01T20:33:25.030Z,18.62
2023-05-01T20:35:57.843Z,18.55
2023-05-01T20:38:29.787Z,18.53
2023-05-01T20:41:01.777Z,18.48
2023-05-01T20:43:33.778Z,18.50
2023-05-01T20:46:06.079Z,18.29
2023-05-01T20:48:38.080Z,18.43
2023-05-01T20:51:10.340Z,18.34
2023-05-01T20:53:42.324Z,18.29
2023-05-01T20:56:14.346Z,18.27
2023-05-01T20:58:46.324Z,18.19
2023-05-01T21:01:18.317Z,18.12
2023-05-01T21:03:50.399Z,18.14
2023-05-01T21:06:22.369Z,18.12
2023-05-01T21:08:54.571Z,18.10
2023-05-01T21:11:26.890Z,18.02
2023-05-01T21:13:58.841Z,18.00
2023-05-01T21:16:30.893Z,17.94
2023-05-01T21:19:03.620Z,17.95
2023-05-01T21:21:36.950Z,17.90
2023-05-01T21:24:16.430Z,17.86
2023-05-01T21:26:49.090Z,17.84
2023-05-01T21:29:21.329Z,17.83
2023-05-01T21:31:53.285Z,17.74
2023-05-01T21:34:25.330Z,17.68
2023-05-01T21:36:57.281Z,17.62
2023-05-01T21:39:31.052Z,17.55
2023-05-01T21:42:04.835Z,17.38
2023-05-01T21:44:36.774Z,17.24
2023-05-01T21:47:10.701Z,17.28
2023-05-01T21:49:42.740Z,17.19
2023-05-01T21:52:15.429Z,17.12
2023-05-01T21:54:47.400Z,16.98
2023-05-01T21:57:19.469Z,16.94
2023-05-01T21:59:52.404Z,16.95
2023-05-01T22:02:29.071Z,17.17
2023-05-01T22:05:01.049Z,17.05
2023-05-01T22:07:33.444Z,17.04
2023-05-01T22:10:07.861Z,17.06
2023-05-01T22:12:41.482Z,17.03
2023-05-01T22:15:15.663Z,16.99
2023-05-01T22:17:47.808Z,16.93
2023-05-01T22:20:19.951Z,17.00
2023-05-01T22:22:51.893Z,16.93
2023-05-01T22:25:23.870Z,16.97
2023-05-01T22:27:55.878Z,16.87
2023-05-01T22:30:27.888Z,16.92
2023-05-01T22:32:59.806Z,16.63
2023-05-01T22:35:31.926Z,16.82
2023-05-01T22:38:03.896Z,16.68
2023-05-01T22:40:35.980Z,16.63
2023-05-01T22:43:08.431Z,16.65
2023-05-01T22:45:40.389Z,16.66
2023-05-01T22:48:12.441Z,16.52
2023-05-01T22:50:44.904Z,16.52
2023-05-01T22:53:16.957Z,16.40
2023-05-01T22:55:48.881Z,16.51
2023-05-01T22:58:21.052Z,16.55
2023-05-01T23:00:52.960Z,16.59
2023-05-01T23:03:24.985Z,16.60
2023-05-01T23:05:57.122Z,16.60
2023-05-01T23:08:29.012Z,16.47
2023-05-01T23:11:01.040Z,16.43
2023-05-01T23:13:33.044Z,16.49
2023-05-01T23:16:07.661Z,16.46
2023-05-01T23:18:39.927Z,16.45
2023-05-01T23:21:13.936Z,16.46
2023-05-01T23:23:47.183Z,16.49
2023-05-01T23:26:26.350Z,16.38
2023-05-01T23:29:00.007Z,16.42
2023-05-01T23:31:31.995Z,16.44
2023-05-01T23:34:04.302Z,16.26
2023-05-01T23:36:36.234Z,16.40
2023-05-01T23:39:08.167Z,16.45
2023-05-01T23:41:41.067Z,16.47
2023-05-01T23:44:13.137Z,16.45
2023-05-01T23:46:45.797Z,16.37
2023-05-01T23:49:17.763Z,16.36
2023-05-01T23:51:49.931Z,16.43
2023-05-01T23:54:21.826Z,16.42
2023-05-01T23:56:54.542Z,16.50
2023-05-01T23:59:26.480Z,16.50
